sensor_id;sensor_type;location;lat;lon;timestamp;P1;durP1;ratioP1;P2;durP2;ratioP2
34134;SDS011;20410;55.578;12.968;2023-12-22T00:00:36;15.67;;;4.10;;
34134;SDS011;20410;55.578;12.968;2023-12-22T00:03:02;18.73;;;4.57;;
34134;SDS011;20410;55.578;12.968;2023-12-22T00:05:28;23.43;;;4.43;;
34134;SDS011;20410;55.578;12.968;2023-12-22T00:07:53;18.30;;;4.60;;
34134;SDS011;20410;55.578;12.968;2023-12-22T00:10:19;19.10;;;4.50;;
34134;SDS011;20410;55.578;12.968;2023-12-22T00:12:45;17.87;;;5.37;;
34134;SDS011;20410;55.578;12.968;2023-12-22T00:15:10;20.00;;;5.13;;
34134;SDS011;20410;55.578;12.968;2023-12-22T00:17:36;25.97;;;6.33;;
34134;SDS011;20410;55.578;12.968;2023-12-22T00:20:01;21.60;;;5.17;;
34134;SDS011;20410;55.578;12.968;2023-12-22T00:22:28;15.27;;;4.87;;
34134;SDS011;20410;55.578;12.968;2023-12-22T00:24:54;19.17;;;4.90;;
34134;SDS011;20410;55.578;12.968;2023-12-22T00:27:20;21.13;;;5.63;;
34134;SDS011;20410;55.578;12.968;2023-12-22T00:29:45;19.83;;;4.53;;
34134;SDS011;20410;55.578;12.968;2023-12-22T00:32:11;17.47;;;5.00;;
34134;SDS011;20410;55.578;12.968;2023-12-22T00:34:37;19.23;;;5.60;;
34134;SDS011;20410;55.578;12.968;2023-12-22T00:37:02;15.10;;;4.43;;
34134;SDS011;20410;55.578;12.968;2023-12-22T00:39:29;16.43;;;4.20;;
34134;SDS011;20410;55.578;12.968;2023-12-22T00:41:55;16.90;;;4.83;;
34134;SDS011;20410;55.578;12.968;2023-12-22T00:44:21;15.13;;;4.07;;
34134;SDS011;20410;55.578;12.968;2023-12-22T00:46:47;17.73;;;4.73;;
34134;SDS011;20410;55.578;12.968;2023-12-22T00:49:12;15.83;;;4.37;;
34134;SDS011;20410;55.578;12.968;2023-12-22T00:51:38;23.10;;;5.17;;
34134;SDS011;20410;55.578;12.968;2023-12-22T00:54:03;22.70;;;5.67;;
34134;SDS011;20410;55.578;12.968;2023-12-22T00:56:29;14.53;;;3.73;;
34134;SDS011;20410;55.578;12.968;2023-12-22T00:58:54;19.43;;;4.70;;
34134;SDS011;20410;55.578;12.968;2023-12-22T01:01:20;16.70;;;4.73;;
34134;SDS011;20410;55.578;12.968;2023-12-22T01:03:46;13.00;;;3.63;;
34134;SDS011;20410;55.578;12.968;2023-12-22T01:06:11;14.13;;;4.40;;
34134;SDS011;20410;55.578;12.968;2023-12-22T01:08:37;21.73;;;5.67;;
34134;SDS011;20410;55.578;12.968;2023-12-22T01:11:03;14.13;;;4.60;;
34134;SDS011;20410;55.578;12.968;2023-12-22T01:13:29;14.97;;;4.87;;
34134;SDS011;20410;55.578;12.968;2023-12-22T01:15:54;16.10;;;4.73;;
34134;SDS011;20410;55.578;12.968;2023-12-22T01:18:20;13.30;;;3.77;;
34134;SDS011;20410;55.578;12.968;2023-12-22T01:20:45;15.27;;;4.70;;
34134;SDS011;20410;55.578;12.968;2023-12-22T01:23:11;21.03;;;5.03;;
34134;SDS011;20410;55.578;12.968;2023-12-22T01:25:36;10.80;;;4.60;;
34134;SDS011;20410;55.578;12.968;2023-12-22T01:28:02;14.67;;;3.67;;
34134;SDS011;20410;55.578;12.968;2023-12-22T01:30:28;10.73;;;3.90;;
34134;SDS011;20410;55.578;12.968;2023-12-22T01:32:53;20.40;;;4.97;;
34134;SDS011;20410;55.578;12.968;2023-12-22T01:35:19;10.33;;;3.77;;
34134;SDS011;20410;55.578;12.968;2023-12-22T01:37:44;14.30;;;4.23;;
34134;SDS011;20410;55.578;12.968;2023-12-22T01:40:12;13.73;;;3.67;;
34134;SDS011;20410;55.578;12.968;2023-12-22T01:42:37;17.30;;;4.27;;
34134;SDS011;20410;55.578;12.968;2023-12-22T01:45:04;15.83;;;4.43;;
34134;SDS011;20410;55.578;12.968;2023-12-22T01:47:31;17.57;;;4.33;;
34134;SDS011;20410;55.578;12.968;2023-12-22T01:49:56;15.70;;;5.17;;
34134;SDS011;20410;55.578;12.968;2023-12-22T01:52:22;13.27;;;4.27;;
34134;SDS011;20410;55.578;12.968;2023-12-22T01:54:48;15.40;;;4.13;;
34134;SDS011;20410;55.578;12.968;2023-12-22T01:57:15;10.60;;;3.63;;
34134;SDS011;20410;55.578;12.968;2023-12-22T01:59:42;16.47;;;4.93;;
34134;SDS011;20410;55.578;12.968;2023-12-22T02:02:09;17.50;;;4.13;;
34134;SDS011;20410;55.578;12.968;2023-12-22T02:04:34;14.63;;;4.03;;
34134;SDS011;20410;55.578;12.968;2023-12-22T02:07:00;12.87;;;3.70;;
34134;SDS011;20410;55.578;12.968;2023-12-22T02:09:27;11.27;;;3.23;;
34134;SDS011;20410;55.578;12.968;2023-12-22T02:11:52;17.90;;;4.63;;
34134;SDS011;20410;55.578;12.968;2023-12-22T02:14:18;13.13;;;3.33;;
34134;SDS011;20410;55.578;12.968;2023-12-22T02:19:51;19.43;;;4.73;;
34134;SDS011;20410;55.578;12.968;2023-12-22T02:22:18;18.47;;;4.93;;
34134;SDS011;20410;55.578;12.968;2023-12-22T02:24:43;14.33;;;4.53;;
34134;SDS011;20410;55.578;12.968;2023-12-22T02:27:22;17.27;;;4.93;;
34134;SDS011;20410;55.578;12.968;2023-12-22T02:30:03;20.27;;;5.07;;
34134;SDS011;20410;55.578;12.968;2023-12-22T02:32:42;18.90;;;4.90;;
34134;SDS011;20410;55.578;12.968;2023-12-22T02:35:10;14.73;;;4.67;;
34134;SDS011;20410;55.578;12.968;2023-12-22T02:37:39;16.30;;;5.17;;
34134;SDS011;20410;55.578;12.968;2023-12-22T02:40:06;20.13;;;5.07;;
34134;SDS011;20410;55.578;12.968;2023-12-22T02:42:34;17.20;;;4.30;;
34134;SDS011;20410;55.578;12.968;2023-12-22T02:45:01;17.43;;;4.60;;
34134;SDS011;20410;55.578;12.968;2023-12-22T02:47:28;15.03;;;4.73;;
34134;SDS011;20410;55.578;12.968;2023-12-22T02:49:54;20.00;;;5.10;;
34134;SDS011;20410;55.578;12.968;2023-12-22T02:52:19;20.40;;;4.97;;
34134;SDS011;20410;55.578;12.968;2023-12-22T02:54:45;19.10;;;5.60;;
34134;SDS011;20410;55.578;12.968;2023-12-22T02:57:12;18.23;;;5.70;;
34134;SDS011;20410;55.578;12.968;2023-12-22T02:59:38;16.37;;;4.10;;
34134;SDS011;20410;55.578;12.968;2023-12-22T03:02:04;18.70;;;4.83;;
34134;SDS011;20410;55.578;12.968;2023-12-22T03:04:29;19.63;;;5.37;;
34134;SDS011;20410;55.578;12.968;2023-12-22T03:06:55;20.03;;;5.10;;
34134;SDS011;20410;55.578;12.968;2023-12-22T03:09:20;12.17;;;4.40;;
34134;SDS011;20410;55.578;12.968;2023-12-22T03:11:46;16.80;;;4.97;;
34134;SDS011;20410;55.578;12.968;2023-12-22T03:14:12;15.63;;;4.47;;
34134;SDS011;20410;55.578;12.968;2023-12-22T03:16:39;18.03;;;5.30;;
34134;SDS011;20410;55.578;12.968;2023-12-22T03:19:05;16.30;;;4.53;;
34134;SDS011;20410;55.578;12.968;2023-12-22T03:21:31;21.60;;;5.00;;
34134;SDS011;20410;55.578;12.968;2023-12-22T03:23:57;17.40;;;5.30;;
34134;SDS011;20410;55.578;12.968;2023-12-22T03:26:22;15.27;;;4.90;;
34134;SDS011;20410;55.578;12.968;2023-12-22T03:28:48;21.57;;;5.33;;
34134;SDS011;20410;55.578;12.968;2023-12-22T03:31:13;16.30;;;5.33;;
34134;SDS011;20410;55.578;12.968;2023-12-22T03:33:39;22.70;;;5.20;;
34134;SDS011;20410;55.578;12.968;2023-12-22T03:36:05;17.13;;;4.63;;
34134;SDS011;20410;55.578;12.968;2023-12-22T03:38:31;20.97;;;5.13;;
34134;SDS011;20410;55.578;12.968;2023-12-22T03:40:56;21.67;;;5.73;;
34134;SDS011;20410;55.578;12.968;2023-12-22T03:43:22;19.93;;;5.00;;
34134;SDS011;20410;55.578;12.968;2023-12-22T03:45:47;13.60;;;4.27;;
34134;SDS011;20410;55.578;12.968;2023-12-22T03:48:13;18.67;;;4.63;;
34134;SDS011;20410;55.578;12.968;2023-12-22T03:50:38;22.23;;;5.73;;
34134;SDS011;20410;55.578;12.968;2023-12-22T03:53:04;16.53;;;4.50;;
34134;SDS011;20410;55.578;12.968;2023-12-22T03:55:29;16.23;;;5.40;;
34134;SDS011;20410;55.578;12.968;2023-12-22T03:57:55;15.63;;;4.67;;
34134;SDS011;20410;55.578;12.968;2023-12-22T04:00:20;15.73;;;4.47;;
34134;SDS011;20410;55.578;12.968;2023-12-22T04:02:46;15.63;;;4.30;;
34134;SDS011;20410;55.578;12.968;2023-12-22T04:05:11;14.60;;;4.50;;
34134;SDS011;20410;55.578;12.968;2023-12-22T04:07:37;16.67;;;5.00;;
34134;SDS011;20410;55.578;12.968;2023-12-22T04:10:02;14.30;;;4.00;;
34134;SDS011;20410;55.578;12.968;2023-12-22T04:12:28;15.37;;;4.87;;
34134;SDS011;20410;55.578;12.968;2023-12-22T04:14:54;13.00;;;4.90;;
34134;SDS011;20410;55.578;12.968;2023-12-22T04:17:19;14.70;;;4.43;;
34134;SDS011;20410;55.578;12.968;2023-12-22T04:19:45;14.43;;;3.87;;
34134;SDS011;20410;55.578;12.968;2023-12-22T04:22:10;16.93;;;4.70;;
34134;SDS011;20410;55.578;12.968;2023-12-22T04:24:36;14.53;;;4.87;;
34134;SDS011;20410;55.578;12.968;2023-12-22T04:27:01;17.30;;;4.73;;
34134;SDS011;20410;55.578;12.968;2023-12-22T04:29:27;11.73;;;4.33;;
34134;SDS011;20410;55.578;12.968;2023-12-22T04:31:53;15.93;;;4.37;;
34134;SDS011;20410;55.578;12.968;2023-12-22T04:34:18;12.83;;;4.17;;
34134;SDS011;20410;55.578;12.968;2023-12-22T04:36:44;20.07;;;5.00;;
34134;SDS011;20410;55.578;12.968;2023-12-22T04:39:09;14.43;;;4.83;;
34134;SDS011;20410;55.578;12.968;2023-12-22T04:41:35;15.33;;;4.90;;
34134;SDS011;20410;55.578;12.968;2023-12-22T04:44:00;17.33;;;5.47;;
34134;SDS011;20410;55.578;12.968;2023-12-22T04:46:29;12.53;;;4.30;;
34134;SDS011;20410;55.578;12.968;2023-12-22T04:48:55;13.43;;;3.80;;
34134;SDS011;20410;55.578;12.968;2023-12-22T04:51:21;15.37;;;3.87;;
34134;SDS011;20410;55.578;12.968;2023-12-22T04:53:46;14.83;;;4.63;;
34134;SDS011;20410;55.578;12.968;2023-12-22T04:56:12;18.17;;;5.30;;
34134;SDS011;20410;55.578;12.968;2023-12-22T04:58:37;13.50;;;4.20;;
34134;SDS011;20410;55.578;12.968;2023-12-22T05:01:03;11.17;;;4.30;;
34134;SDS011;20410;55.578;12.968;2023-12-22T05:03:29;12.13;;;3.73;;
34134;SDS011;20410;55.578;12.968;2023-12-22T05:05:55;10.30;;;3.60;;
34134;SDS011;20410;55.578;12.968;2023-12-22T05:08:20;13.40;;;4.13;;
34134;SDS011;20410;55.578;12.968;2023-12-22T05:10:46;21.40;;;5.03;;
34134;SDS011;20410;55.578;12.968;2023-12-22T05:13:11;11.40;;;3.37;;
34134;SDS011;20410;55.578;12.968;2023-12-22T05:15:37;16.27;;;3.83;;
34134;SDS011;20410;55.578;12.968;2023-12-22T05:18:02;13.90;;;4.43;;
34134;SDS011;20410;55.578;12.968;2023-12-22T05:20:28;11.03;;;3.53;;
34134;SDS011;20410;55.578;12.968;2023-12-22T05:22:54;15.63;;;4.27;;
34134;SDS011;20410;55.578;12.968;2023-12-22T05:25:19;15.50;;;3.90;;
34134;SDS011;20410;55.578;12.968;2023-12-22T05:27:45;13.07;;;3.43;;
34134;SDS011;20410;55.578;12.968;2023-12-22T05:30:10;11.03;;;3.60;;
34134;SDS011;20410;55.578;12.968;2023-12-22T05:32:36;16.10;;;3.97;;
34134;SDS011;20410;55.578;12.968;2023-12-22T05:35:02;7.70;;;3.70;;
34134;SDS011;20410;55.578;12.968;2023-12-22T05:37:28;9.87;;;3.30;;
34134;SDS011;20410;55.578;12.968;2023-12-22T05:39:53;12.13;;;3.23;;
34134;SDS011;20410;55.578;12.968;2023-12-22T05:42:19;13.67;;;4.00;;
34134;SDS011;20410;55.578;12.968;2023-12-22T05:44:44;10.73;;;3.50;;
34134;SDS011;20410;55.578;12.968;2023-12-22T05:47:14;8.00;;;3.10;;
34134;SDS011;20410;55.578;12.968;2023-12-22T05:49:40;10.93;;;4.23;;
34134;SDS011;20410;55.578;12.968;2023-12-22T05:52:06;14.83;;;4.27;;
34134;SDS011;20410;55.578;12.968;2023-12-22T05:54:31;10.73;;;4.13;;
34134;SDS011;20410;55.578;12.968;2023-12-22T05:56:57;14.17;;;3.47;;
34134;SDS011;20410;55.578;12.968;2023-12-22T05:59:23;10.40;;;3.63;;
34134;SDS011;20410;55.578;12.968;2023-12-22T06:01:52;18.87;;;4.60;;
34134;SDS011;20410;55.578;12.968;2023-12-22T06:04:18;13.07;;;3.93;;
34134;SDS011;20410;55.578;12.968;2023-12-22T06:06:44;12.33;;;3.47;;
34134;SDS011;20410;55.578;12.968;2023-12-22T06:09:10;19.17;;;4.00;;
34134;SDS011;20410;55.578;12.968;2023-12-22T06:11:38;17.30;;;4.40;;
34134;SDS011;20410;55.578;12.968;2023-12-22T06:14:04;16.47;;;4.00;;
34134;SDS011;20410;55.578;12.968;2023-12-22T06:16:30;12.20;;;4.83;;
34134;SDS011;20410;55.578;12.968;2023-12-22T06:18:56;18.00;;;3.83;;
34134;SDS011;20410;55.578;12.968;2023-12-22T06:21:21;15.47;;;3.80;;
34134;SDS011;20410;55.578;12.968;2023-12-22T06:23:47;15.37;;;4.13;;
34134;SDS011;20410;55.578;12.968;2023-12-22T06:26:13;9.87;;;3.20;;
34134;SDS011;20410;55.578;12.968;2023-12-22T06:28:38;10.90;;;4.20;;
34134;SDS011;20410;55.578;12.968;2023-12-22T06:31:05;11.10;;;3.10;;
34134;SDS011;20410;55.578;12.968;2023-12-22T06:33:31;15.00;;;3.77;;
34134;SDS011;20410;55.578;12.968;2023-12-22T06:35:57;12.37;;;3.20;;
34134;SDS011;20410;55.578;12.968;2023-12-22T06:38:22;9.10;;;3.23;;
34134;SDS011;20410;55.578;12.968;2023-12-22T06:40:48;10.70;;;3.93;;
34134;SDS011;20410;55.578;12.968;2023-12-22T06:43:13;9.17;;;2.93;;
34134;SDS011;20410;55.578;12.968;2023-12-22T06:45:39;12.93;;;3.73;;
34134;SDS011;20410;55.578;12.968;2023-12-22T06:48:05;9.63;;;3.27;;
34134;SDS011;20410;55.578;12.968;2023-12-22T06:50:32;6.10;;;2.80;;
34134;SDS011;20410;55.578;12.968;2023-12-22T06:52:57;10.83;;;2.93;;
34134;SDS011;20410;55.578;12.968;2023-12-22T06:55:23;13.50;;;4.13;;
34134;SDS011;20410;55.578;12.968;2023-12-22T06:57:49;14.50;;;2.80;;
34134;SDS011;20410;55.578;12.968;2023-12-22T07:00:14;7.17;;;2.87;;
34134;SDS011;20410;55.578;12.968;2023-12-22T07:02:41;7.37;;;2.97;;
34134;SDS011;20410;55.578;12.968;2023-12-22T07:07:35;6.80;;;2.90;;
34134;SDS011;20410;55.578;12.968;2023-12-22T07:10:01;7.87;;;3.30;;
34134;SDS011;20410;55.578;12.968;2023-12-22T07:12:26;7.43;;;3.30;;
34134;SDS011;20410;55.578;12.968;2023-12-22T07:14:52;12.40;;;3.13;;
34134;SDS011;20410;55.578;12.968;2023-12-22T07:17:18;8.43;;;2.83;;
34134;SDS011;20410;55.578;12.968;2023-12-22T07:19:44;10.50;;;3.10;;
34134;SDS011;20410;55.578;12.968;2023-12-22T07:22:10;11.20;;;3.63;;
34134;SDS011;20410;55.578;12.968;2023-12-22T07:24:35;10.23;;;3.70;;
34134;SDS011;20410;55.578;12.968;2023-12-22T07:27:01;7.97;;;3.47;;
34134;SDS011;20410;55.578;12.968;2023-12-22T07:29:27;8.13;;;3.23;;
34134;SDS011;20410;55.578;12.968;2023-12-22T07:31:52;9.57;;;3.77;;
34134;SDS011;20410;55.578;12.968;2023-12-22T07:34:18;7.10;;;2.50;;
34134;SDS011;20410;55.578;12.968;2023-12-22T07:36:43;12.70;;;3.73;;
34134;SDS011;20410;55.578;12.968;2023-12-22T07:39:09;10.20;;;3.10;;
34134;SDS011;20410;55.578;12.968;2023-12-22T07:41:35;12.80;;;3.33;;
34134;SDS011;20410;55.578;12.968;2023-12-22T07:44:01;13.37;;;4.20;;
34134;SDS011;20410;55.578;12.968;2023-12-22T07:46:27;9.33;;;3.00;;
34134;SDS011;20410;55.578;12.968;2023-12-22T07:48:53;10.43;;;3.93;;
34134;SDS011;20410;55.578;12.968;2023-12-22T07:51:19;6.67;;;2.97;;
34134;SDS011;20410;55.578;12.968;2023-12-22T07:53:45;13.60;;;3.17;;
34134;SDS011;20410;55.578;12.968;2023-12-22T07:56:10;12.50;;;3.90;;
34134;SDS011;20410;55.578;12.968;2023-12-22T07:58:36;9.23;;;2.97;;
34134;SDS011;20410;55.578;12.968;2023-12-22T08:01:03;11.83;;;3.40;;
34134;SDS011;20410;55.578;12.968;2023-12-22T08:03:29;11.77;;;3.90;;
34134;SDS011;20410;55.578;12.968;2023-12-22T08:05:54;14.43;;;4.40;;
34134;SDS011;20410;55.578;12.968;2023-12-22T08:08:20;11.13;;;4.00;;
34134;SDS011;20410;55.578;12.968;2023-12-22T08:10:46;8.70;;;3.73;;
34134;SDS011;20410;55.578;12.968;2023-12-22T08:13:11;17.27;;;4.23;;
34134;SDS011;20410;55.578;12.968;2023-12-22T08:15:37;12.60;;;3.90;;
34134;SDS011;20410;55.578;12.968;2023-12-22T08:18:03;10.87;;;4.00;;
34134;SDS011;20410;55.578;12.968;2023-12-22T08:20:28;8.27;;;3.27;;
34134;SDS011;20410;55.578;12.968;2023-12-22T08:22:54;11.97;;;3.33;;
34134;SDS011;20410;55.578;12.968;2023-12-22T08:25:19;7.70;;;3.30;;
34134;SDS011;20410;55.578;12.968;2023-12-22T08:27:45;9.67;;;3.63;;
34134;SDS011;20410;55.578;12.968;2023-12-22T08:30:11;7.30;;;3.00;;
34134;SDS011;20410;55.578;12.968;2023-12-22T08:32:37;12.13;;;3.60;;
34134;SDS011;20410;55.578;12.968;2023-12-22T08:35:04;12.93;;;3.00;;
34134;SDS011;20410;55.578;12.968;2023-12-22T08:37:30;7.97;;;4.27;;
34134;SDS011;20410;55.578;12.968;2023-12-22T08:39:55;5.87;;;3.10;;
34134;SDS011;20410;55.578;12.968;2023-12-22T08:42:22;9.53;;;3.40;;
34134;SDS011;20410;55.578;12.968;2023-12-22T08:44:48;10.30;;;3.87;;
34134;SDS011;20410;55.578;12.968;2023-12-22T08:47:14;12.10;;;3.67;;
34134;SDS011;20410;55.578;12.968;2023-12-22T08:49:40;9.67;;;3.47;;
34134;SDS011;20410;55.578;12.968;2023-12-22T08:52:06;8.47;;;3.10;;
34134;SDS011;20410;55.578;12.968;2023-12-22T08:54:32;8.47;;;2.90;;
34134;SDS011;20410;55.578;12.968;2023-12-22T08:57:00;10.70;;;3.83;;
34134;SDS011;20410;55.578;12.968;2023-12-22T08:59:27;6.90;;;2.87;;
34134;SDS011;20410;55.578;12.968;2023-12-22T09:01:52;7.90;;;3.33;;
34134;SDS011;20410;55.578;12.968;2023-12-22T09:04:18;10.90;;;3.57;;
34134;SDS011;20410;55.578;12.968;2023-12-22T09:06:46;12.27;;;3.67;;
34134;SDS011;20410;55.578;12.968;2023-12-22T09:09:11;12.13;;;3.80;;
34134;SDS011;20410;55.578;12.968;2023-12-22T09:11:37;8.27;;;4.00;;
34134;SDS011;20410;55.578;12.968;2023-12-22T09:14:04;5.90;;;3.17;;
34134;SDS011;20410;55.578;12.968;2023-12-22T09:16:34;13.70;;;3.53;;
34134;SDS011;20410;55.578;12.968;2023-12-22T09:19:00;7.67;;;3.27;;
34134;SDS011;20410;55.578;12.968;2023-12-22T09:21:26;7.03;;;3.40;;
34134;SDS011;20410;55.578;12.968;2023-12-22T09:23:51;6.73;;;3.20;;
34134;SDS011;20410;55.578;12.968;2023-12-22T09:26:17;7.53;;;3.40;;
34134;SDS011;20410;55.578;12.968;2023-12-22T09:28:43;6.60;;;3.17;;
34134;SDS011;20410;55.578;12.968;2023-12-22T09:31:09;6.20;;;3.10;;
34134;SDS011;20410;55.578;12.968;2023-12-22T09:33:35;6.70;;;2.97;;
34134;SDS011;20410;55.578;12.968;2023-12-22T09:36:01;5.10;;;2.80;;
34134;SDS011;20410;55.578;12.968;2023-12-22T09:38:27;8.23;;;3.80;;
34134;SDS011;20410;55.578;12.968;2023-12-22T09:40:54;14.47;;;4.10;;
34134;SDS011;20410;55.578;12.968;2023-12-22T09:43:21;8.17;;;4.00;;
34134;SDS011;20410;55.578;12.968;2023-12-22T09:45:46;12.27;;;3.47;;
34134;SDS011;20410;55.578;12.968;2023-12-22T09:48:14;8.60;;;3.20;;
34134;SDS011;20410;55.578;12.968;2023-12-22T09:50:43;9.50;;;3.60;;
34134;SDS011;20410;55.578;12.968;2023-12-22T09:53:12;6.37;;;2.93;;
34134;SDS011;20410;55.578;12.968;2023-12-22T09:55:43;7.10;;;3.40;;
34134;SDS011;20410;55.578;12.968;2023-12-22T09:58:11;12.03;;;3.33;;
34134;SDS011;20410;55.578;12.968;2023-12-22T10:00:38;8.87;;;3.30;;
34134;SDS011;20410;55.578;12.968;2023-12-22T10:03:05;7.17;;;3.23;;
34134;SDS011;20410;55.578;12.968;2023-12-22T10:05:32;10.87;;;3.23;;
34134;SDS011;20410;55.578;12.968;2023-12-22T10:07:58;10.80;;;4.33;;
34134;SDS011;20410;55.578;12.968;2023-12-22T10:10:26;6.67;;;3.23;;
34134;SDS011;20410;55.578;12.968;2023-12-22T10:12:54;9.63;;;2.90;;
34134;SDS011;20410;55.578;12.968;2023-12-22T10:15:21;8.23;;;3.20;;
34134;SDS011;20410;55.578;12.968;2023-12-22T10:17:51;10.30;;;3.50;;
34134;SDS011;20410;55.578;12.968;2023-12-22T10:20:17;7.97;;;3.13;;
34134;SDS011;20410;55.578;12.968;2023-12-22T10:22:43;13.03;;;3.80;;
34134;SDS011;20410;55.578;12.968;2023-12-22T10:25:08;7.07;;;2.63;;
34134;SDS011;20410;55.578;12.968;2023-12-22T10:27:37;13.20;;;3.80;;
34134;SDS011;20410;55.578;12.968;2023-12-22T10:30:03;8.27;;;3.43;;
34134;SDS011;20410;55.578;12.968;2023-12-22T10:32:29;8.83;;;3.27;;
34134;SDS011;20410;55.578;12.968;2023-12-22T10:34:55;9.80;;;3.50;;
34134;SDS011;20410;55.578;12.968;2023-12-22T10:37:24;8.67;;;3.43;;
34134;SDS011;20410;55.578;12.968;2023-12-22T10:39:53;10.50;;;3.50;;
34134;SDS011;20410;55.578;12.968;2023-12-22T10:42:19;9.03;;;3.90;;
34134;SDS011;20410;55.578;12.968;2023-12-22T10:44:45;8.37;;;3.57;;
34134;SDS011;20410;55.578;12.968;2023-12-22T10:47:11;11.77;;;3.17;;
34134;SDS011;20410;55.578;12.968;2023-12-22T10:49:37;5.13;;;3.27;;
34134;SDS011;20410;55.578;12.968;2023-12-22T10:52:02;8.33;;;4.10;;
34134;SDS011;20410;55.578;12.968;2023-12-22T10:54:28;9.07;;;3.87;;
34134;SDS011;20410;55.578;12.968;2023-12-22T10:56:58;9.97;;;3.40;;
34134;SDS011;20410;55.578;12.968;2023-12-22T10:59:30;13.40;;;3.70;;
34134;SDS011;20410;55.578;12.968;2023-12-22T11:02:00;8.57;;;3.00;;
34134;SDS011;20410;55.578;12.968;2023-12-22T11:04:30;8.73;;;3.00;;
34134;SDS011;20410;55.578;12.968;2023-12-22T11:06:59;10.00;;;3.40;;
34134;SDS011;20410;55.578;12.968;2023-12-22T11:09:28;11.43;;;4.03;;
34134;SDS011;20410;55.578;12.968;2023-12-22T11:11:56;8.33;;;3.47;;
34134;SDS011;20410;55.578;12.968;2023-12-22T11:14:23;8.80;;;4.50;;
34134;SDS011;20410;55.578;12.968;2023-12-22T11:16:51;10.23;;;3.40;;
34134;SDS011;20410;55.578;12.968;2023-12-22T11:19:18;8.60;;;3.57;;
34134;SDS011;20410;55.578;12.968;2023-12-22T11:21:45;9.73;;;3.97;;
34134;SDS011;20410;55.578;12.968;2023-12-22T11:24:14;9.67;;;3.77;;
34134;SDS011;20410;55.578;12.968;2023-12-22T11:26:41;12.87;;;4.07;;
34134;SDS011;20410;55.578;12.968;2023-12-22T11:29:07;8.30;;;4.17;;
34134;SDS011;20410;55.578;12.968;2023-12-22T11:31:34;8.63;;;3.50;;
34134;SDS011;20410;55.578;12.968;2023-12-22T11:34:02;10.20;;;3.37;;
34134;SDS011;20410;55.578;12.968;2023-12-22T11:36:31;9.47;;;3.53;;
34134;SDS011;20410;55.578;12.968;2023-12-22T11:38:57;10.73;;;3.90;;
34134;SDS011;20410;55.578;12.968;2023-12-22T11:41:24;9.53;;;3.30;;
34134;SDS011;20410;55.578;12.968;2023-12-22T11:43:54;8.10;;;4.23;;
34134;SDS011;20410;55.578;12.968;2023-12-22T11:46:21;10.37;;;3.73;;
34134;SDS011;20410;55.578;12.968;2023-12-22T11:48:49;13.00;;;4.23;;
34134;SDS011;20410;55.578;12.968;2023-12-22T11:51:16;9.90;;;3.83;;
34134;SDS011;20410;55.578;12.968;2023-12-22T11:53:42;8.03;;;3.30;;
34134;SDS011;20410;55.578;12.968;2023-12-22T11:56:09;14.60;;;3.23;;
34134;SDS011;20410;55.578;12.968;2023-12-22T12:01:07;9.80;;;3.37;;
34134;SDS011;20410;55.578;12.968;2023-12-22T12:08:52;13.70;;;3.73;;
34134;SDS011;20410;55.578;12.968;2023-12-22T12:14:36;8.60;;;3.33;;
34134;SDS011;20410;55.578;12.968;2023-12-22T12:17:06;9.93;;;3.37;;
34134;SDS011;20410;55.578;12.968;2023-12-22T12:19:34;11.37;;;3.27;;
34134;SDS011;20410;55.578;12.968;2023-12-22T12:22:02;8.63;;;2.80;;
34134;SDS011;20410;55.578;12.968;2023-12-22T12:24:28;12.60;;;3.17;;
34134;SDS011;20410;55.578;12.968;2023-12-22T12:26:53;10.93;;;3.43;;
34134;SDS011;20410;55.578;12.968;2023-12-22T12:29:19;16.23;;;4.07;;
34134;SDS011;20410;55.578;12.968;2023-12-22T12:31:46;15.67;;;4.10;;
34134;SDS011;20410;55.578;12.968;2023-12-22T12:34:11;13.50;;;3.73;;
34134;SDS011;20410;55.578;12.968;2023-12-22T12:36:39;10.00;;;3.77;;
34134;SDS011;20410;55.578;12.968;2023-12-22T12:39:06;8.53;;;3.90;;
34134;SDS011;20410;55.578;12.968;2023-12-22T12:41:35;14.93;;;3.57;;
34134;SDS011;20410;55.578;12.968;2023-12-22T12:44:04;11.33;;;3.73;;
34134;SDS011;20410;55.578;12.968;2023-12-22T12:46:32;11.03;;;3.57;;
34134;SDS011;20410;55.578;12.968;2023-12-22T12:49:02;10.47;;;3.70;;
34134;SDS011;20410;55.578;12.968;2023-12-22T12:54:06;9.40;;;4.30;;
34134;SDS011;20410;55.578;12.968;2023-12-22T12:56:45;9.37;;;3.03;;
34134;SDS011;20410;55.578;12.968;2023-12-22T12:59:12;12.40;;;3.63;;
34134;SDS011;20410;55.578;12.968;2023-12-22T13:01:40;12.13;;;3.23;;
34134;SDS011;20410;55.578;12.968;2023-12-22T13:04:07;14.17;;;3.83;;
34134;SDS011;20410;55.578;12.968;2023-12-22T13:06:32;14.03;;;3.10;;
34134;SDS011;20410;55.578;12.968;2023-12-22T13:08:58;11.90;;;2.93;;
34134;SDS011;20410;55.578;12.968;2023-12-22T13:11:28;11.13;;;2.80;;
34134;SDS011;20410;55.578;12.968;2023-12-22T13:13:56;16.20;;;3.57;;
34134;SDS011;20410;55.578;12.968;2023-12-22T13:16:25;11.97;;;3.27;;
34134;SDS011;20410;55.578;12.968;2023-12-22T13:18:54;12.43;;;3.80;;
34134;SDS011;20410;55.578;12.968;2023-12-22T13:21:21;12.07;;;3.80;;
34134;SDS011;20410;55.578;12.968;2023-12-22T13:23:47;13.60;;;3.67;;
34134;SDS011;20410;55.578;12.968;2023-12-22T13:26:32;14.17;;;4.17;;
34134;SDS011;20410;55.578;12.968;2023-12-22T13:28:57;13.47;;;4.00;;
34134;SDS011;20410;55.578;12.968;2023-12-22T13:31:24;19.57;;;4.77;;
34134;SDS011;20410;55.578;12.968;2023-12-22T13:33:51;11.87;;;3.73;;
34134;SDS011;20410;55.578;12.968;2023-12-22T13:36:17;10.33;;;3.17;;
34134;SDS011;20410;55.578;12.968;2023-12-22T13:38:46;11.47;;;2.63;;
34134;SDS011;20410;55.578;12.968;2023-12-22T13:41:12;11.50;;;2.97;;
34134;SDS011;20410;55.578;12.968;2023-12-22T13:43:39;10.67;;;3.43;;
34134;SDS011;20410;55.578;12.968;2023-12-22T13:46:05;11.47;;;3.80;;
34134;SDS011;20410;55.578;12.968;2023-12-22T13:48:33;9.50;;;3.20;;
34134;SDS011;20410;55.578;12.968;2023-12-22T13:50:59;5.83;;;3.17;;
34134;SDS011;20410;55.578;12.968;2023-12-22T13:53:25;12.27;;;3.70;;
34134;SDS011;20410;55.578;12.968;2023-12-22T13:55:55;12.33;;;3.60;;
34134;SDS011;20410;55.578;12.968;2023-12-22T13:58:24;13.13;;;3.90;;
34134;SDS011;20410;55.578;12.968;2023-12-22T14:00:50;14.37;;;3.70;;
34134;SDS011;20410;55.578;12.968;2023-12-22T14:03:16;10.07;;;3.13;;
34134;SDS011;20410;55.578;12.968;2023-12-22T14:05:42;14.20;;;3.90;;
34134;SDS011;20410;55.578;12.968;2023-12-22T14:08:08;9.90;;;3.53;;
34134;SDS011;20410;55.578;12.968;2023-12-22T14:10:34;8.63;;;2.87;;
34134;SDS011;20410;55.578;12.968;2023-12-22T14:12:59;9.80;;;3.87;;
34134;SDS011;20410;55.578;12.968;2023-12-22T14:15:25;10.70;;;3.57;;
34134;SDS011;20410;55.578;12.968;2023-12-22T14:17:54;9.77;;;3.57;;
34134;SDS011;20410;55.578;12.968;2023-12-22T14:20:21;11.83;;;3.93;;
34134;SDS011;20410;55.578;12.968;2023-12-22T14:22:46;8.87;;;3.50;;
34134;SDS011;20410;55.578;12.968;2023-12-22T14:25:12;16.30;;;3.50;;
34134;SDS011;20410;55.578;12.968;2023-12-22T14:27:37;10.07;;;3.37;;
34134;SDS011;20410;55.578;12.968;2023-12-22T14:30:03;12.90;;;3.80;;
34134;SDS011;20410;55.578;12.968;2023-12-22T14:32:29;11.00;;;3.47;;
34134;SDS011;20410;55.578;12.968;2023-12-22T14:34:54;11.07;;;3.50;;
34134;SDS011;20410;55.578;12.968;2023-12-22T14:37:20;14.10;;;4.20;;
34134;SDS011;20410;55.578;12.968;2023-12-22T14:39:46;13.73;;;3.80;;